Time;durP1;ratioP1;P1;durP2;ratioP2;P2;SDS_P1;SDS_P2;PMS_P1;PMS_P2;Temp;Humidity;BMP_temperature;BMP_pressure;BME280_temperature;BME280_humidity;BME280_pressure;Samples;Min_cycle;Max_cycle;Signal;HPM_P1;HPM_P2
2023/03/09 00:01:35;;;;;;;1.15;1.05;;;8.90;72.40;;;;;;4972347;28;20194;-73
2023/03/09 00:04:01;;;;;;;1.87;1.10;;;8.80;72.70;;;;;;4975982;28;20190;-73
2023/03/09 00:06:27;;;;;;;1.25;1.05;;;8.80;72.90;;;;;;4977607;28;20635;-73
2023/03/09 00:08:53;;;;;;;1.30;1.20;;;8.70;73.30;;;;;;4954447;28;20218;-72
2023/03/09 00:11:18;;;;;;;0.87;0.87;;;8.60;73.80;;;;;;4976355;28;20189;-72
2023/03/09 00:13:47;;;;;;;1.17;0.90;;;8.50;73.90;;;;;;4973498;28;20273;-73
2023/03/09 00:16:22;;;;;;;1.43;1.33;;;8.40;74.40;;;;;;4973625;28;20624;-73
2023/03/09 00:18:51;;;;;;;1.57;1.43;;;8.30;74.40;;;;;;4957053;28;20237;-73
2023/03/09 00:24:11;;;;;;;2.40;1.67;;;8.20;74.80;;;;;;4976454;28;20664;-73
2023/03/09 00:26:39;;;;;;;2.00;1.37;;;8.10;75.00;;;;;;4977635;28;20192;-72
2023/03/09 00:29:06;;;;;;;3.67;2.10;;;8.10;74.90;;;;;;4978310;28;20284;-73
2023/03/09 00:31:32;;;;;;;2.80;2.27;;;8.00;75.00;;;;;;4978192;28;20313;-72
2023/03/09 00:33:57;;;;;;;3.27;2.57;;;8.00;75.50;;;;;;4974838;28;20265;-73
2023/03/09 00:36:24;;;;;;;3.13;2.10;;;7.90;75.60;;;;;;4977195;28;20193;-73
2023/03/09 00:38:55;;;;;;;4.10;2.33;;;7.80;75.70;;;;;;4957993;28;20224;-73
2023/03/09 00:41:22;;;;;;;4.07;2.10;;;7.80;76.00;;;;;;4980614;28;20193;-74
2023/03/09 00:43:48;;;;;;;3.53;1.80;;;7.80;76.20;;;;;;4975258;28;20277;-73
2023/03/09 00:46:15;;;;;;;2.80;2.37;;;7.70;76.20;;;;;;4971736;28;20280;-74
2023/03/09 00:48:40;;;;;;;2.30;2.10;;;7.70;76.70;;;;;;4978254;28;20199;-72
2023/03/09 00:51:07;;;;;;;2.23;2.00;;;7.60;76.80;;;;;;4979237;28;20722;-73
2023/03/09 00:53:34;;;;;;;4.50;1.83;;;7.50;76.80;;;;;;4981902;28;20663;-73
2023/03/09 00:56:05;;;;;;;1.23;1.17;;;7.50;77.40;;;;;;4963283;28;20701;-72
2023/03/09 00:58:31;;;;;;;4.43;1.87;;;7.40;77.10;;;;;;4980623;28;20246;-73
2023/03/09 01:00:57;;;;;;;2.30;1.60;;;7.40;77.40;;;;;;4960901;28;20727;-73
2023/03/09 01:03:23;;;;;;;1.73;1.60;;;7.30;77.40;;;;;;4981060;28;20217;-73
2023/03/09 01:05:49;;;;;;;4.13;1.87;;;7.30;77.70;;;;;;4978903;28;20296;-73
2023/03/09 01:08:15;;;;;;;4.93;1.77;;;7.20;77.70;;;;;;4978851;28;20216;-74
2023/03/09 01:10:41;;;;;;;3.37;1.93;;;7.20;77.70;;;;;;4978706;28;20188;-73
2023/03/09 01:13:09;;;;;;;1.93;1.73;;;7.20;78.00;;;;;;4977812;28;20192;-72
2023/03/09 01:15:36;;;;;;;2.33;2.17;;;7.20;77.40;;;;;;4963606;28;20273;-73
2023/03/09 01:18:02;;;;;;;3.33;1.80;;;7.30;77.70;;;;;;4981249;28;20240;-73
2023/03/09 01:20:27;;;;;;;2.13;1.50;;;7.30;78.40;;;;;;4975562;28;20687;-72
2023/03/09 01:22:53;;;;;;;3.93;1.60;;;7.20;78.40;;;;;;4980617;28;20196;-73
2023/03/09 01:25:19;;;;;;;2.20;2.03;;;7.20;78.40;;;;;;4978980;28;20186;-73
2023/03/09 01:27:44;;;;;;;1.90;1.80;;;7.20;78.40;;;;;;4979481;28;20194;-73
2023/03/09 01:30:11;;;;;;;1.23;1.23;;;7.20;77.90;;;;;;4980617;28;20213;-73
2023/03/09 01:32:37;;;;;;;3.57;1.87;;;7.10;78.70;;;;;;4979440;28;20185;-74
2023/03/09 01:35:05;;;;;;;1.50;1.40;;;7.10;78.70;;;;;;4978965;28;20196;-73
2023/03/09 01:37:30;;;;;;;2.93;2.37;;;7.10;79.00;;;;;;4978880;28;20303;-73
2023/03/09 01:39:56;;;;;;;1.97;1.87;;;7.10;78.00;;;;;;4980316;28;20190;-73
2023/03/09 01:42:22;;;;;;;3.40;1.80;;;7.10;78.70;;;;;;4978194;28;20198;-72
2023/03/09 01:45:19;;;;;;;2.07;1.93;;;7.00;78.60;;;;;;4975010;28;20187;-72
2023/03/09 01:47:46;;;;;;;2.37;1.80;;;7.00;78.60;;;;;;4982183;28;20667;-73
2023/03/09 01:50:16;;;;;;;2.77;1.70;;;6.90;79.80;;;;;;4975312;28;20186;-73
2023/03/09 01:52:45;;;;;;;1.47;1.37;;;6.90;79.30;;;;;;4975018;28;20268;-72
2023/03/09 01:55:14;;;;;;;1.93;1.83;;;6.90;79.10;;;;;;4975793;28;20182;-73
2023/03/09 01:57:48;;;;;;;2.40;1.57;;;6.80;79.80;;;;;;4979007;28;20213;-72
2023/03/09 02:00:19;;;;;;;1.17;1.17;;;6.80;79.70;;;;;;4973668;28;20185;-71
2023/03/09 02:02:50;;;;;;;1.20;1.20;;;6.80;79.90;;;;;;4979204;28;20188;-72
2023/03/09 02:05:23;;;;;;;2.60;1.73;;;6.80;79.70;;;;;;4979846;28;20212;-72
2023/03/09 02:07:50;;;;;;;1.97;1.10;;;6.70;79.60;;;;;;4975002;28;20197;-72
2023/03/09 02:10:38;;;;;;;1.50;1.40;;;6.70;79.60;;;;;;4976746;28;20668;-72
2023/03/09 02:13:08;;;;;;;1.93;1.53;;;6.70;79.60;;;;;;4979179;28;20200;-73
2023/03/09 02:15:34;;;;;;;1.30;1.20;;;6.70;79.60;;;;;;4982391;28;20186;-72
2023/03/09 02:18:00;;;;;;;1.40;1.30;;;6.60;80.00;;;;;;4960947;28;20222;-73
2023/03/09 02:20:38;;;;;;;1.07;1.07;;;6.60;80.30;;;;;;4974893;28;20575;-73
2023/03/09 02:23:08;;;;;;;1.30;1.20;;;6.60;80.20;;;;;;4976308;28;20197;-72
2023/03/09 02:25:40;;;;;;;1.17;1.17;;;6.60;80.00;;;;;;4980707;28;20179;-73
2023/03/09 02:28:07;;;;;;;2.60;0.90;;;6.60;80.10;;;;;;4976801;28;20177;-73
2023/03/09 02:30:37;;;;;;;2.60;1.40;;;6.60;80.20;;;;;;4975842;28;20181;-73
2023/03/09 02:33:08;;;;;;;2.03;1.77;;;6.60;80.30;;;;;;4975917;28;20190;-73
2023/03/09 02:35:34;;;;;;;3.27;1.37;;;6.60;80.50;;;;;;4973791;28;20248;-73
2023/03/09 02:37:59;;;;;;;1.37;1.27;;;6.60;80.50;;;;;;4979072;28;20312;-73
2023/03/09 02:40:28;;;;;;;1.50;1.20;;;6.60;80.40;;;;;;4973960;28;20211;-72
2023/03/09 02:42:54;;;;;;;2.90;1.37;;;6.60;80.40;;;;;;4977226;28;20182;-73
2023/03/09 02:45:23;;;;;;;0.90;0.90;;;6.60;80.50;;;;;;4977263;28;20702;-73
2023/03/09 02:47:50;;;;;;;1.07;0.97;;;6.60;80.50;;;;;;4975201;28;20212;-72
2023/03/09 02:50:16;;;;;;;1.30;1.30;;;6.60;80.50;;;;;;4978168;28;20182;-72
2023/03/09 02:52:42;;;;;;;2.13;1.40;;;6.60;80.60;;;;;;4976008;28;20201;-72
2023/03/09 02:55:08;;;;;;;1.20;1.10;;;6.70;80.60;;;;;;4977022;28;20624;-72
2023/03/09 02:57:34;;;;;;;1.37;1.37;;;6.70;80.50;;;;;;4976657;28;20244;-73
2023/03/09 03:00:00;;;;;;;1.07;1.00;;;6.70;80.50;;;;;;4974454;28;20194;-72
2023/03/09 03:02:26;;;;;;;1.20;1.13;;;6.70;80.40;;;;;;4978272;28;20192;-73
2023/03/09 03:04:52;;;;;;;1.33;1.33;;;6.70;80.30;;;;;;4981930;28;20632;-73
2023/03/09 03:07:18;;;;;;;0.90;0.90;;;6.80;80.10;;;;;;4961530;28;20700;-73
2023/03/09 03:09:43;;;;;;;1.17;1.17;;;6.70;80.30;;;;;;4979970;28;20189;-73
2023/03/09 03:12:09;;;;;;;1.07;1.00;;;6.70;79.90;;;;;;4971270;28;20297;-73
2023/03/09 03:14:36;;;;;;;1.17;1.07;;;6.70;80.60;;;;;;4976479;28;20690;-72
2023/03/09 03:17:02;;;;;;;1.10;1.00;;;6.70;80.60;;;;;;4974981;28;20186;-72
2023/03/09 03:19:27;;;;;;;1.57;1.47;;;6.70;80.50;;;;;;4981795;28;20734;-72
2023/03/09 03:21:53;;;;;;;0.97;0.97;;;6.70;80.50;;;;;;4979123;28;20376;-73
2023/03/09 03:24:18;;;;;;;1.53;1.23;;;6.70;80.50;;;;;;4976271;28;20216;-73
2023/03/09 03:26:44;;;;;;;4.60;1.00;;;6.70;80.50;;;;;;4973127;28;20200;-73
2023/03/09 03:29:10;;;;;;;0.93;0.70;;;6.70;80.40;;;;;;4979269;28;20628;-73
2023/03/09 03:31:35;;;;;;;0.67;0.67;;;6.70;80.20;;;;;;4975728;28;20220;-72
2023/03/09 03:34:01;;;;;;;1.23;1.13;;;6.70;80.10;;;;;;4978292;28;20198;-73
2023/03/09 03:36:27;;;;;;;2.10;0.77;;;6.70;80.30;;;;;;4974978;28;20189;-73
2023/03/09 03:38:52;;;;;;;0.70;0.70;;;6.70;80.20;;;;;;4978303;28;20765;-73
2023/03/09 03:41:18;;;;;;;0.80;0.73;;;6.70;80.20;;;;;;4973860;28;20190;-73
2023/03/09 03:43:44;;;;;;;1.33;0.70;;;6.80;80.10;;;;;;4975303;28;20193;-73
2023/03/09 03:46:09;;;;;;;0.73;0.73;;;6.80;80.30;;;;;;4976152;28;20726;-73
2023/03/09 03:48:37;;;;;;;1.50;0.87;;;6.80;79.90;;;;;;4977781;28;20620;-73
2023/03/09 03:51:03;;;;;;;1.43;1.20;;;6.80;79.70;;;;;;4978167;28;20272;-73
2023/03/09 03:53:30;;;;;;;0.73;0.73;;;6.90;79.70;;;;;;4973243;28;20217;-73
2023/03/09 03:55:56;;;;;;;2.20;0.90;;;6.90;79.40;;;;;;4976021;28;20635;-73
2023/03/09 03:58:22;;;;;;;2.77;0.73;;;6.80;79.50;;;;;;4975580;28;20272;-72
2023/03/09 04:00:47;;;;;;;0.70;0.70;;;6.80;79.30;;;;;;4978368;28;20175;-72
2023/03/09 04:03:13;;;;;;;0.63;0.63;;;6.80;79.80;;;;;;4974534;28;20194;-74
2023/03/09 04:05:38;;;;;;;0.93;0.60;;;6.70;80.20;;;;;;4976513;28;20184;-73
2023/03/09 04:08:04;;;;;;;0.63;0.63;;;6.70;80.60;;;;;;4975885;28;20227;-73
2023/03/09 04:10:30;;;;;;;0.90;0.90;;;6.70;80.60;;;;;;4974089;28;20182;-73
2023/03/09 04:12:57;;;;;;;0.50;0.50;;;6.60;80.50;;;;;;4978032;28;20193;-72
2023/03/09 04:15:22;;;;;;;1.00;1.00;;;6.60;80.50;;;;;;4975048;28;20671;-72
2023/03/09 04:17:48;;;;;;;3.23;0.60;;;6.60;80.60;;;;;;4974102;28;20242;-73
2023/03/09 04:20:14;;;;;;;0.43;0.43;;;6.60;80.80;;;;;;4976355;28;20189;-73
2023/03/09 04:22:41;;;;;;;3.33;0.87;;;6.50;80.80;;;;;;4976505;28;20182;-72
2023/03/09 04:25:07;;;;;;;0.80;0.80;;;6.60;80.80;;;;;;4976636;28;20216;-73
2023/03/09 04:27:32;;;;;;;0.60;0.50;;;6.60;80.80;;;;;;4971464;28;20219;-73
2023/03/09 04:29:58;;;;;;;0.63;0.63;;;6.50;80.80;;;;;;4975516;28;20980;-73
2023/03/09 04:32:24;;;;;;;0.47;0.47;;;6.50;80.80;;;;;;4979305;28;20654;-73
2023/03/09 04:34:49;;;;;;;0.70;0.70;;;6.60;80.80;;;;;;4974487;28;20186;-73
2023/03/09 04:37:15;;;;;;;0.87;0.63;;;6.60;80.80;;;;;;4958584;28;20689;-73
2023/03/09 04:39:41;;;;;;;0.40;0.40;;;6.60;80.40;;;;;;4974775;28;20185;-73
2023/03/09 04:42:06;;;;;;;0.83;0.83;;;6.70;80.60;;;;;;4972940;28;20806;-73
2023/03/09 04:44:32;;;;;;;1.00;1.00;;;6.70;80.50;;;;;;4971969;28;20189;-73
2023/03/09 04:46:57;;;;;;;0.70;0.70;;;6.70;80.60;;;;;;4974432;28;20234;-72
2023/03/09 04:49:23;;;;;;;1.30;1.03;;;6.70;80.50;;;;;;4976881;28;20193;-72
2023/03/09 04:51:49;;;;;;;1.33;1.03;;;6.80;80.50;;;;;;4971256;28;20198;-73
2023/03/09 04:54:15;;;;;;;0.57;0.57;;;6.70;80.50;;;;;;4973775;28;20261;-72
2023/03/09 04:56:40;;;;;;;0.73;0.73;;;6.70;80.40;;;;;;4971855;28;20634;-74
2023/03/09 04:59:06;;;;;;;1.00;0.70;;;6.80;80.70;;;;;;4975337;28;20225;-74
2023/03/09 05:01:31;;;;;;;1.50;0.93;;;6.80;81.00;;;;;;4977669;28;20201;-75
2023/03/09 05:03:57;;;;;;;1.53;0.83;;;6.80;81.00;;;;;;4974886;28;20705;-75
2023/03/09 05:06:23;;;;;;;1.20;1.10;;;6.90;80.90;;;;;;4970498;28;20179;-76
2023/03/09 05:08:48;;;;;;;1.30;0.80;;;6.90;80.90;;;;;;4975717;28;20186;-76
2023/03/09 05:11:14;;;;;;;1.20;1.10;;;6.90;80.70;;;;;;4978375;28;20196;-75
2023/03/09 05:13:40;;;;;;;1.10;1.10;;;6.90;80.80;;;;;;4976026;28;20190;-75
2023/03/09 05:16:07;;;;;;;0.90;0.90;;;6.90;80.60;;;;;;4974437;28;20186;-75
2023/03/09 05:18:36;;;;;;;0.93;0.93;;;6.90;80.70;;;;;;4973880;28;20914;-74
2023/03/09 05:21:07;;;;;;;1.30;0.80;;;6.90;80.60;;;;;;4976973;28;20190;-76
2023/03/09 05:23:33;;;;;;;1.10;1.10;;;6.90;80.40;;;;;;4978332;28;20569;-75
2023/03/09 05:26:01;;;;;;;0.70;0.70;;;7.00;80.70;;;;;;4975379;28;20191;-74
2023/03/09 05:28:27;;;;;;;2.00;0.87;;;7.00;80.40;;;;;;4971868;28;20190;-74
2023/03/09 05:30:53;;;;;;;1.53;0.97;;;7.00;80.70;;;;;;4957711;28;20189;-74
2023/03/09 05:33:19;;;;;;;1.00;1.00;;;7.10;80.80;;;;;;4975689;28;20565;-73
2023/03/09 05:35:45;;;;;;;0.73;0.73;;;7.10;80.20;;;;;;4983792;28;20186;-78
2023/03/09 05:38:10;;;;;;;0.60;0.60;;;7.20;79.80;;;;;;4982631;28;20524;-82
2023/03/09 05:40:36;;;;;;;0.80;0.73;;;7.20;79.80;;;;;;4980653;28;20187;-76
2023/03/09 05:43:02;;;;;;;2.27;0.90;;;7.30;79.50;;;;;;4975510;28;20189;-78
2023/03/09 05:45:28;;;;;;;1.33;1.33;;;7.20;79.90;;;;;;4959137;28;20198;-78
2023/03/09 05:47:53;;;;;;;1.23;1.23;;;7.20;80.20;;;;;;4976819;28;20200;-77
2023/03/09 05:50:19;;;;;;;2.77;1.00;;;7.20;79.90;;;;;;4977947;28;20927;-78
2023/03/09 05:52:45;;;;;;;2.50;1.00;;;7.30;80.30;;;;;;4977032;28;20822;-77
2023/03/09 05:55:10;;;;;;;1.60;1.33;;;7.40;80.50;;;;;;4977643;28;20265;-77
2023/03/09 05:57:38;;;;;;;1.47;1.27;;;7.40;80.60;;;;;;4959223;28;20221;-78
2023/03/09 06:00:06;;;;;;;3.73;1.40;;;7.50;80.00;;;;;;4975165;28;20697;-77
2023/03/09 06:02:33;;;;;;;6.77;1.20;;;7.60;80.00;;;;;;4974554;28;20805;-77
2023/03/09 06:04:59;;;;;;;2.47;1.60;;;7.70;80.30;;;;;;4974712;28;20193;-78
2023/03/09 06:07:25;;;;;;;2.53;2.17;;;7.80;80.10;;;;;;4974545;28;20194;-77
2023/03/09 06:09:50;;;;;;;3.43;1.60;;;7.90;80.00;;;;;;4957852;28;20216;-78
2023/03/09 06:12:17;;;;;;;1.73;1.67;;;7.90;80.30;;;;;;4962088;28;20193;-77
2023/03/09 06:14:43;;;;;;;2.53;2.37;;;8.00;79.60;;;;;;4954345;28;20190;-76
2023/03/09 06:17:08;;;;;;;3.87;2.60;;;8.10;79.00;;;;;;4963542;28;20221;-78
2023/03/09 06:19:34;;;;;;;4.17;2.33;;;8.20;79.70;;;;;;4979209;28;20186;-78
2023/03/09 06:22:00;;;;;;;8.50;2.50;;;8.20;79.00;;;;;;4982311;28;20185;-78
2023/03/09 06:24:25;;;;;;;3.33;1.77;;;8.40;78.30;;;;;;4978005;28;20209;-78
2023/03/09 06:26:51;;;;;;;3.00;2.23;;;8.40;77.90;;;;;;4978464;28;20445;-79
2023/03/09 06:29:17;;;;;;;3.13;2.13;;;8.50;77.70;;;;;;4977103;28;20190;-78
2023/03/09 06:31:42;;;;;;;3.63;2.17;;;8.60;77.50;;;;;;4977766;28;20189;-79
2023/03/09 06:34:08;;;;;;;1.80;1.70;;;8.70;77.50;;;;;;4975729;28;20245;-76
2023/03/09 06:36:34;;;;;;;5.23;1.63;;;8.80;77.90;;;;;;4983039;28;20224;-77
2023/03/09 06:39:00;;;;;;;1.37;1.33;;;8.90;76.60;;;;;;4978682;28;20221;-79
2023/03/09 06:41:31;;;;;;;2.97;1.30;;;9.10;76.10;;;;;;4978877;28;20182;-79
2023/03/09 06:43:57;;;;;;;5.23;2.10;;;9.20;75.00;;;;;;4978243;28;20649;-79
2023/03/09 06:46:23;;;;;;;1.77;1.47;;;9.30;75.20;;;;;;4974437;28;20194;-78
2023/03/09 06:48:49;;;;;;;2.40;1.57;;;9.40;75.30;;;;;;4961041;28;20308;-78
2023/03/09 06:51:14;;;;;;;3.33;1.53;;;9.60;74.80;;;;;;4974027;28;20189;-78
2023/03/09 06:53:40;;;;;;;0.93;0.93;;;9.70;74.40;;;;;;4974636;28;20179;-78
2023/03/09 06:56:06;;;;;;;1.97;1.63;;;9.80;74.10;;;;;;4977630;28;20193;-78
2023/03/09 06:58:33;;;;;;;5.87;1.80;;;9.90;73.60;;;;;;4980095;28;20224;-77
2023/03/09 07:01:06;;;;;;;1.60;1.17;;;10.00;73.10;;;;;;4979031;28;20201;-79
2023/03/09 07:03:32;;;;;;;1.90;1.80;;;10.10;72.70;;;;;;4977334;28;20257;-77
2023/03/09 07:05:57;;;;;;;6.10;2.00;;;10.20;72.70;;;;;;4978659;28;20269;-78
2023/03/09 07:08:23;;;;;;;1.88;1.80;;;10.30;72.80;;;;;;4979264;28;20182;-78
2023/03/09 07:10:49;;;;;;;2.25;1.83;;;10.40;72.60;;;;;;4975982;28;20186;-78
2023/03/09 07:13:15;;;;;;;1.85;1.75;;;10.50;72.20;;;;;;4975349;28;20218;-78
2023/03/09 07:15:41;;;;;;;2.63;2.13;;;10.60;71.70;;;;;;4976207;28;20190;-78
2023/03/09 07:18:07;;;;;;;2.25;2.15;;;10.80;71.50;;;;;;4959661;28;20272;-77
2023/03/09 07:20:33;;;;;;;1.85;1.73;;;11.00;71.30;;;;;;4981034;28;20182;-78
2023/03/09 07:22:59;;;;;;;1.70;1.60;;;11.10;70.90;;;;;;4958000;28;20174;-78
2023/03/09 07:25:24;;;;;;;3.38;1.85;;;11.30;70.40;;;;;;4977733;28;20186;-78
2023/03/09 07:27:50;;;;;;;6.30;2.72;;;11.50;70.20;;;;;;4973426;28;20182;-77
2023/03/09 07:30:16;;;;;;;4.00;2.35;;;11.70;69.60;;;;;;4978805;28;20186;-76
2023/03/09 07:32:42;;;;;;;5.43;2.47;;;11.80;69.20;;;;;;4977531;28;20253;-76
2023/03/09 07:35:08;;;;;;;2.08;1.98;;;11.90;68.70;;;;;;4978900;28;20173;-78
2023/03/09 07:37:34;;;;;;;2.53;2.30;;;12.00;68.40;;;;;;4971863;28;20218;-77
2023/03/09 07:40:00;;;;;;;3.83;2.00;;;12.10;67.90;;;;;;4980110;28;20760;-77
2023/03/09 07:42:25;;;;;;;2.00;1.90;;;12.20;67.80;;;;;;4975361;28;20182;-77
2023/03/09 07:44:51;;;;;;;2.38;2.25;;;12.30;68.00;;;;;;4958397;28;20185;-78
2023/03/09 07:47:17;;;;;;;2.25;2.15;;;12.30;67.60;;;;;;4961475;28;20189;-77
2023/03/09 07:49:43;;;;;;;3.95;3.13;;;12.40;67.30;;;;;;4975444;28;20174;-79
2023/03/09 07:52:08;;;;;;;6.40;2.63;;;12.40;68.10;;;;;;4975185;28;20652;-78
2023/03/09 07:54:36;;;;;;;4.65;3.00;;;12.40;67.40;;;;;;4978989;28;20623;-76
2023/03/09 07:57:02;;;;;;;2.78;2.55;;;12.50;67.90;;;;;;4976750;28;20182;-77
2023/03/09 07:59:28;;;;;;;4.00;3.60;;;12.70;67.40;;;;;;4960200;28;20222;-76
2023/03/09 08:01:54;;;;;;;5.97;3.38;;;12.90;66.80;;;;;;4981727;28;20173;-77
2023/03/09 08:04:19;;;;;;;3.28;3.08;;;13.10;66.60;;;;;;4975033;28;20178;-77
2023/03/09 08:06:45;;;;;;;5.82;4.40;;;13.40;66.00;;;;;;4975707;28;20244;-77
2023/03/09 08:09:14;;;;;;;4.90;4.40;;;13.50;64.90;;;;;;4974557;28;20276;-76
2023/03/09 08:11:40;;;;;;;5.75;3.75;;;13.70;65.20;;;;;;4977477;28;20259;-78
2023/03/09 08:14:05;;;;;;;6.50;4.32;;;13.90;65.30;;;;;;4972398;28;20186;-76
2023/03/09 08:16:31;;;;;;;4.50;4.13;;;14.30;64.50;;;;;;4977772;28;20628;-77
2023/03/09 08:18:57;;;;;;;7.03;4.00;;;14.60;64.50;;;;;;4977880;28;20236;-77
2023/03/09 08:21:23;;;;;;;8.57;4.35;;;15.00;64.20;;;;;;4977343;28;20190;-77
2023/03/09 08:23:48;;;;;;;4.35;4.00;;;15.50;62.80;;;;;;4978090;28;20245;-76
2023/03/09 08:26:16;;;;;;;5.43;4.15;;;15.50;62.80;;;;;;4975274;28;20300;-77
2023/03/09 08:28:42;;;;;;;4.05;3.65;;;15.70;62.30;;;;;;4976909;28;20186;-78
2023/03/09 08:31:14;;;;;;;4.18;3.83;;;15.80;61.90;;;;;;4980031;28;20185;-78
2023/03/09 08:33:40;;;;;;;6.35;3.33;;;16.00;62.00;;;;;;4974932;28;20178;-77
2023/03/09 08:36:11;;;;;;;4.68;3.72;;;16.30;61.70;;;;;;4974130;28;20194;-77
2023/03/09 08:38:36;;;;;;;3.85;3.13;;;16.60;60.90;;;;;;4974059;28;20213;-78
2023/03/09 08:41:02;;;;;;;5.28;3.35;;;16.80;60.70;;;;;;4972706;28;20232;-78
2023/03/09 08:43:28;;;;;;;2.95;2.85;;;16.90;60.90;;;;;;4973156;28;20182;-77
2023/03/09 08:45:54;;;;;;;4.10;3.00;;;17.30;61.00;;;;;;4953684;28;20293;-77
2023/03/09 08:48:19;;;;;;;2.80;2.60;;;17.90;59.80;;;;;;4976494;28;20198;-77
2023/03/09 08:50:45;;;;;;;3.58;2.67;;;18.60;58.90;;;;;;4976877;28;20173;-77
2023/03/09 08:53:11;;;;;;;2.63;2.53;;;19.20;57.90;;;;;;4974229;28;20192;-77
2023/03/09 08:55:36;;;;;;;2.58;2.45;;;19.70;55.40;;;;;;4974268;28;20625;-77
2023/03/09 08:58:02;;;;;;;3.20;2.88;;;20.10;55.30;;;;;;4970507;28;20218;-76
2023/03/09 09:00:28;;;;;;;2.38;2.17;;;20.60;56.00;;;;;;4977357;28;20667;-77
2023/03/09 09:02:53;;;;;;;2.30;2.10;;;20.90;54.40;;;;;;4973236;28;20259;-77
2023/03/09 09:05:19;;;;;;;3.88;3.47;;;21.10;53.70;;;;;;4973275;28;20187;-77
2023/03/09 09:07:45;;;;;;;2.50;2.30;;;20.90;52.70;;;;;;4976101;28;20189;-78
2023/03/09 09:10:11;;;;;;;3.00;2.72;;;20.50;53.50;;;;;;4976068;28;20212;-78
2023/03/09 09:12:37;;;;;;;2.20;2.10;;;20.30;54.90;;;;;;4982050;28;20182;-78
2023/03/09 09:15:05;;;;;;;9.48;2.75;;;20.00;55.50;;;;;;4976665;28;20202;-78
2023/03/09 09:17:31;;;;;;;5.15;2.78;;;19.70;55.30;;;;;;4981351;28;20222;-78
2023/03/09 09:19:56;;;;;;;3.63;2.30;;;19.40;56.20;;;;;;4982102;28;20259;-78
2023/03/09 09:22:22;;;;;;;3.65;2.50;;;19.00;56.40;;;;;;4980691;28;20177;-76
2023/03/09 09:24:49;;;;;;;2.42;2.22;;;18.70;56.80;;;;;;4982093;28;20281;-77
2023/03/09 09:27:14;;;;;;;4.68;1.83;;;18.60;57.00;;;;;;4980183;28;21023;-77
2023/03/09 09:29:40;;;;;;;2.35;2.15;;;18.50;56.90;;;;;;4982107;28;20217;-77
2023/03/09 09:32:08;;;;;;;4.28;2.00;;;18.70;57.30;;;;;;4978819;28;20185;-77
2023/03/09 09:34:34;;;;;;;7.35;2.10;;;19.10;57.80;;;;;;4958071;28;20710;-77
2023/03/09 09:37:01;;;;;;;2.33;2.20;;;19.60;57.00;;;;;;4975043;28;20213;-77
2023/03/09 09:39:28;;;;;;;1.83;1.73;;;20.00;55.70;;;;;;4979911;28;20273;-78
2023/03/09 09:42:19;;;;;;;2.33;2.15;;;20.40;55.70;;;;;;4974296;28;20184;-78
2023/03/09 09:44:47;;;;;;;4.68;2.38;;;21.10;53.20;;;;;;4974104;28;20190;-78
2023/03/09 09:47:18;;;;;;;2.50;1.77;;;21.90;53.30;;;;;;4978368;28;20193;-78
2023/03/09 09:49:48;;;;;;;3.50;1.63;;;22.70;51.50;;;;;;4982038;28;20784;-78
2023/03/09 09:52:32;;;;;;;1.92;1.83;;;23.60;51.70;;;;;;4973863;28;20183;-78
2023/03/09 09:55:16;;;;;;;3.03;1.40;;;24.80;50.90;;;;;;4977050;28;20183;-78
2023/03/09 09:57:51;;;;;;;1.52;1.42;;;26.00;48.40;;;;;;4979133;28;20217;-78
2023/03/09 10:00:33;;;;;;;3.63;1.73;;;27.10;47.90;;;;;;4982596;28;20192;-78
2023/03/09 10:03:08;;;;;;;3.90;1.88;;;27.50;45.20;;;;;;4979559;28;20305;-78
2023/03/09 10:05:43;;;;;;;1.58;1.50;;;28.00;47.30;;;;;;4980494;28;20271;-76
2023/03/09 10:08:44;;;;;;;2.55;1.38;;;28.90;46.80;;;;;;4977692;28;20186;-76
2023/03/09 10:11:24;;;;;;;1.80;1.50;;;29.70;42.40;;;;;;4879759;29;20208;-76
2023/03/09 10:13:56;;;;;;;2.35;1.40;;;30.10;44.00;;;;;;4881242;29;20184;-77
2023/03/09 10:16:29;;;;;;;1.85;1.50;;;30.70;45.80;;;;;;4881140;29;20197;-79
2023/03/09 10:19:01;;;;;;;1.52;1.38;;;31.40;45.60;;;;;;4876684;29;20221;-77
2023/03/09 10:21:53;;;;;;;2.60;1.58;;;32.10;45.00;;;;;;4880642;29;20734;-77
2023/03/09 10:24:25;;;;;;;2.13;1.70;;;33.00;42.20;;;;;;4878610;29;20194;-77
2023/03/09 10:27:07;;;;;;;1.45;1.35;;;33.90;43.80;;;;;;4880848;29;20198;-76
2023/03/09 10:29:43;;;;;;;1.20;1.10;;;34.20;41.20;;;;;;4881123;29;20607;-78
2023/03/09 10:32:19;;;;;;;5.50;1.20;;;34.20;39.90;;;;;;4878806;29;20188;-78
2023/03/09 10:34:54;;;;;;;1.55;1.27;;;34.20;41.30;;;;;;4881148;29;20197;-78
2023/03/09 10:37:27;;;;;;;1.48;1.38;;;34.40;42.70;;;;;;4878293;29;20660;-76
2023/03/09 10:39:52;;;;;;;1.85;0.95;;;34.20;42.20;;;;;;4880934;29;20726;-77
2023/03/09 10:42:26;;;;;;;0.40;0.38;;;33.90;40.30;;;;;;4885280;29;20204;-77
2023/03/09 10:45:03;;;;;;;0.47;0.40;;;32.30;41.10;;;;;;4881032;29;20193;-77
2023/03/09 10:47:49;;;;;;;0.25;0.25;;;31.10;41.60;;;;;;4905080;28;20185;-78
2023/03/09 10:50:15;;;;;;;0.30;0.30;;;30.10;41.50;;;;;;4922849;29;21015;-77
2023/03/09 10:52:41;;;;;;;3.47;0.40;;;29.60;42.40;;;;;;4916995;29;20605;-76
2023/03/09 10:55:34;;;;;;;0.30;0.30;;;28.50;43.10;;;;;;4916586;29;20216;-77
2023/03/09 10:58:11;;;;;;;1.40;0.28;;;27.50;43.90;;;;;;4913959;29;20215;-76
2023/03/09 11:01:10;;;;;;;1.27;0.30;;;27.00;44.60;;;;;;4916573;29;20703;-76
2023/03/09 11:03:41;;;;;;;0.30;0.30;;;26.90;45.20;;;;;;4904182;29;20291;-81
2023/03/09 11:06:15;;;;;;;0.20;0.20;;;27.10;45.10;;;;;;4918522;29;20236;-77
2023/03/09 11:08:42;;;;;;;0.30;0.30;;;27.20;44.50;;;;;;4915846;29;20525;-77
2023/03/09 11:11:19;;;;;;;0.88;0.30;;;26.60;45.10;;;;;;4921993;29;20188;-77
2023/03/09 11:13:45;;;;;;;0.40;0.40;;;26.40;46.80;;;;;;4922305;29;20633;-77
2023/03/09 11:16:25;;;;;;;0.30;0.30;;;26.40;45.10;;;;;;4919016;29;20495;-76
2023/03/09 11:19:11;;;;;;;0.10;0.10;;;25.70;45.60;;;;;;4917688;29;20283;-77
2023/03/09 11:21:56;;;;;;;0.25;0.25;;;24.90;46.80;;;;;;4914472;29;20196;-78
2023/03/09 11:24:49;;;;;;;0.32;0.32;;;25.10;46.50;;;;;;4919353;29;20282;-77
2023/03/09 11:27:28;;;;;;;0.30;0.20;;;24.90;46.80;;;;;;4942613;28;20197;-78
2023/03/09 11:30:05;;;;;;;1.05;0.40;;;24.40;47.40;;;;;;4975748;28;20724;-78
2023/03/09 11:32:31;;;;;;;0.57;0.45;;;24.60;47.80;;;;;;4974451;28;20189;-77
2023/03/09 11:34:59;;;;;;;0.32;0.32;;;25.00;47.10;;;;;;4979465;28;20186;-77
2023/03/09 11:37:32;;;;;;;2.17;0.43;;;25.30;47.20;;;;;;4978209;28;20182;-77
2023/03/09 11:40:27;;;;;;;0.17;0.17;;;25.40;46.40;;;;;;4977725;28;21416;-77
2023/03/09 11:43:19;;;;;;;0.20;0.20;;;25.60;46.20;;;;;;4975830;28;20584;-76
2023/03/09 11:45:45;;;;;;;1.05;0.20;;;25.50;46.30;;;;;;4959948;28;20813;-76
2023/03/09 11:48:24;;;;;;;0.30;0.30;;;25.20;46.90;;;;;;4975769;28;20186;-77
2023/03/09 11:51:01;;;;;;;0.30;0.30;;;25.30;46.50;;;;;;4978136;28;20181;-77
2023/03/09 11:53:42;;;;;;;0.22;0.22;;;25.50;46.30;;;;;;4976130;28;20182;-78
2023/03/09 11:56:08;;;;;;;0.20;0.20;;;25.50;46.40;;;;;;4977048;28;20816;-78
2023/03/09 11:58:43;;;;;;;0.30;0.30;;;25.20;46.50;;;;;;4977411;28;20213;-78
2023/03/09 12:01:27;;;;;;;0.45;0.30;;;24.90;47.90;;;;;;4974693;28;20184;-77
2023/03/09 12:04:02;;;;;;;0.20;0.20;;;25.40;46.80;;;;;;4975989;28;20563;-78
2023/03/09 12:06:41;;;;;;;1.95;0.40;;;25.50;46.30;;;;;;4976854;28;20216;-77
2023/03/09 12:09:23;;;;;;;0.20;0.20;;;25.20;46.70;;;;;;4976670;28;20182;-78
2023/03/09 12:12:19;;;;;;;2.55;0.20;;;24.60;47.70;;;;;;4974813;28;20210;-77
2023/03/09 12:15:02;;;;;;;0.30;0.30;;;24.40;47.70;;;;;;4892353;29;20205;-78
2023/03/09 12:17:36;;;;;;;0.20;0.20;;;24.70;47.70;;;;;;4890712;29;20196;-78
2023/03/09 12:20:01;;;;;;;0.20;0.20;;;25.40;47.50;;;;;;4893060;29;20209;-76
2023/03/09 12:22:38;;;;;;;0.40;0.40;;;25.60;46.10;;;;;;4891636;29;20200;-79
2023/03/09 12:25:13;;;;;;;0.30;0.30;;;25.50;46.40;;;;;;4890693;29;20272;-76
2023/03/09 12:27:54;;;;;;;0.30;0.30;;;25.50;46.60;;;;;;4893179;29;20224;-78
2023/03/09 12:30:25;;;;;;;0.30;0.30;;;25.10;46.80;;;;;;4888330;29;20782;-77
2023/03/09 12:32:51;;;;;;;0.30;0.30;;;24.90;47.90;;;;;;4891136;29;20696;-76
2023/03/09 12:35:19;;;;;;;0.45;0.30;;;25.10;47.30;;;;;;4897590;29;20192;-77
2023/03/09 12:37:54;;;;;;;0.30;0.30;;;25.40;47.10;;;;;;4888797;29;20220;-77
2023/03/09 12:40:25;;;;;;;0.82;0.20;;;25.90;46.70;;;;;;4894593;29;20973;-76
2023/03/09 12:42:54;;;;;;;0.30;0.30;;;26.00;46.70;;;;;;4889907;29;20204;-76
2023/03/09 12:45:22;;;;;;;0.20;0.20;;;26.00;45.80;;;;;;4894344;29;20879;-77
2023/03/09 12:47:52;;;;;;;0.20;0.20;;;26.40;46.40;;;;;;4891821;29;20201;-76
2023/03/09 12:50:46;;;;;;;0.28;0.28;;;26.80;45.40;;;;;;4891871;29;20192;-77
2023/03/09 12:53:26;;;;;;;0.20;0.20;;;26.70;45.20;;;;;;4933635;29;20207;-78
2023/03/09 12:56:05;;;;;;;0.10;0.10;;;27.00;45.70;;;;;;4930472;29;20210;-77
2023/03/09 12:58:38;;;;;;;0.20;0.20;;;27.60;44.90;;;;;;4936332;28;20664;-79
2023/03/09 13:01:10;;;;;;;0.25;0.25;;;27.60;45.40;;;;;;4934736;29;20193;-78
2023/03/09 13:03:50;;;;;;;0.35;0.35;;;27.80;45.40;;;;;;4938879;29;20227;-78
2023/03/09 13:06:40;;;;;;;0.55;0.35;;;27.90;43.90;;;;;;4932702;29;20311;-77